sensor_id;sensor_type;location;lat;lon;timestamp;P1;durP1;ratioP1;P2;durP2;ratioP2
48613;SDS011;34408;51.426;5.444;2022-08-18T00:01:04;13.75;;;12.35;;
48613;SDS011;34408;51.426;5.444;2022-08-18T00:03:33;14.98;;;12.10;;
48613;SDS011;34408;51.426;5.444;2022-08-18T00:06:21;13.10;;;11.77;;
48613;SDS011;34408;51.426;5.444;2022-08-18T00:08:53;12.02;;;10.77;;
48613;SDS011;34408;51.426;5.444;2022-08-18T00:11:21;14.55;;;12.20;;
48613;SDS011;34408;51.426;5.444;2022-08-18T00:13:49;12.45;;;10.73;;
48613;SDS011;34408;51.426;5.444;2022-08-18T00:16:17;12.13;;;10.93;;
48613;SDS011;34408;51.426;5.444;2022-08-18T00:18:46;12.00;;;10.60;;
48613;SDS011;34408;51.426;5.444;2022-08-18T00:21:14;13.10;;;11.52;;
48613;SDS011;34408;51.426;5.444;2022-08-18T00:23:42;11.73;;;10.18;;
48613;SDS011;34408;51.426;5.444;2022-08-18T00:26:10;13.00;;;11.60;;
48613;SDS011;34408;51.426;5.444;2022-08-18T00:28:37;13.80;;;10.70;;
48613;SDS011;34408;51.426;5.444;2022-08-18T00:31:05;11.40;;;10.20;;
48613;SDS011;34408;51.426;5.444;2022-08-18T00:33:33;12.20;;;11.00;;
48613;SDS011;34408;51.426;5.444;2022-08-18T00:36:02;11.85;;;10.65;;
48613;SDS011;34408;51.426;5.444;2022-08-18T00:38:30;14.27;;;12.02;;
48613;SDS011;34408;51.426;5.444;2022-08-18T00:40:58;12.90;;;11.50;;
48613;SDS011;34408;51.426;5.444;2022-08-18T00:43:28;13.38;;;11.80;;
48613;SDS011;34408;51.426;5.444;2022-08-18T00:46:04;14.27;;;12.20;;
48613;SDS011;34408;51.426;5.444;2022-08-18T00:48:33;13.20;;;11.75;;
48613;SDS011;34408;51.426;5.444;2022-08-18T00:51:04;14.65;;;13.15;;
48613;SDS011;34408;51.426;5.444;2022-08-18T00:53:38;13.35;;;11.02;;
48613;SDS011;34408;51.426;5.444;2022-08-18T00:56:12;13.98;;;12.07;;
48613;SDS011;34408;51.426;5.444;2022-08-18T00:58:43;18.20;;;12.52;;
48613;SDS011;34408;51.426;5.444;2022-08-18T01:01:15;14.35;;;12.70;;
48613;SDS011;34408;51.426;5.444;2022-08-18T01:03:48;13.77;;;12.32;;
48613;SDS011;34408;51.426;5.444;2022-08-18T01:06:22;15.18;;;12.13;;
48613;SDS011;34408;51.426;5.444;2022-08-18T01:08:57;13.75;;;12.43;;
48613;SDS011;34408;51.426;5.444;2022-08-18T01:11:26;14.65;;;12.77;;
48613;SDS011;34408;51.426;5.444;2022-08-18T01:13:54;15.65;;;13.18;;
48613;SDS011;34408;51.426;5.444;2022-08-18T01:16:23;13.93;;;11.65;;
48613;SDS011;34408;51.426;5.444;2022-08-18T01:19:22;17.70;;;13.30;;
48613;SDS011;34408;51.426;5.444;2022-08-18T01:22:12;16.30;;;14.00;;
48613;SDS011;34408;51.426;5.444;2022-08-18T01:24:59;15.48;;;12.93;;
48613;SDS011;34408;51.426;5.444;2022-08-18T01:27:51;13.80;;;12.45;;
48613;SDS011;34408;51.426;5.444;2022-08-18T01:30:26;17.02;;;12.02;;
48613;SDS011;34408;51.426;5.444;2022-08-18T01:32:54;14.52;;;13.00;;
48613;SDS011;34408;51.426;5.444;2022-08-18T01:35:24;14.55;;;12.88;;
48613;SDS011;34408;51.426;5.444;2022-08-18T01:38:02;15.60;;;11.40;;
48613;SDS011;34408;51.426;5.444;2022-08-18T01:40:31;13.70;;;11.80;;
48613;SDS011;34408;51.426;5.444;2022-08-18T01:43:19;15.13;;;12.60;;
48613;SDS011;34408;51.426;5.444;2022-08-18T01:45:47;15.80;;;13.27;;
48613;SDS011;34408;51.426;5.444;2022-08-18T01:48:15;14.85;;;12.73;;
48613;SDS011;34408;51.426;5.444;2022-08-18T01:50:43;16.13;;;13.10;;
48613;SDS011;34408;51.426;5.444;2022-08-18T01:53:13;16.00;;;13.40;;
48613;SDS011;34408;51.426;5.444;2022-08-18T01:55:42;14.93;;;13.23;;
48613;SDS011;34408;51.426;5.444;2022-08-18T01:58:10;14.48;;;12.98;;
48613;SDS011;34408;51.426;5.444;2022-08-18T02:00:38;15.95;;;11.98;;
48613;SDS011;34408;51.426;5.444;2022-08-18T02:03:08;19.42;;;13.30;;
48613;SDS011;34408;51.426;5.444;2022-08-18T02:05:39;15.98;;;13.43;;
48613;SDS011;34408;51.426;5.444;2022-08-18T02:08:12;15.13;;;12.45;;
48613;SDS011;34408;51.426;5.444;2022-08-18T02:10:42;13.55;;;12.15;;
48613;SDS011;34408;51.426;5.444;2022-08-18T02:13:09;14.70;;;11.82;;
48613;SDS011;34408;51.426;5.444;2022-08-18T02:15:38;14.02;;;12.45;;
48613;SDS011;34408;51.426;5.444;2022-08-18T02:18:11;15.02;;;12.57;;
48613;SDS011;34408;51.426;5.444;2022-08-18T02:21:04;15.02;;;12.48;;
48613;SDS011;34408;51.426;5.444;2022-08-18T02:23:35;14.60;;;12.85;;
48613;SDS011;34408;51.426;5.444;2022-08-18T02:26:06;13.55;;;11.63;;
48613;SDS011;34408;51.426;5.444;2022-08-18T02:28:34;13.10;;;11.38;;
48613;SDS011;34408;51.426;5.444;2022-08-18T02:31:03;13.80;;;10.90;;
48613;SDS011;34408;51.426;5.444;2022-08-18T02:33:36;12.70;;;11.35;;
48613;SDS011;34408;51.426;5.444;2022-08-18T02:36:12;14.30;;;11.45;;
48613;SDS011;34408;51.426;5.444;2022-08-18T02:38:40;16.20;;;11.50;;
48613;SDS011;34408;51.426;5.444;2022-08-18T02:41:21;14.73;;;10.63;;
48613;SDS011;34408;51.426;5.444;2022-08-18T02:43:54;13.02;;;9.80;;
48613;SDS011;34408;51.426;5.444;2022-08-18T02:46:22;13.40;;;9.95;;
48613;SDS011;34408;51.426;5.444;2022-08-18T02:48:55;11.57;;;9.35;;
48613;SDS011;34408;51.426;5.444;2022-08-18T02:51:23;12.00;;;9.70;;
48613;SDS011;34408;51.426;5.444;2022-08-18T02:53:51;13.02;;;9.80;;
48613;SDS011;34408;51.426;5.444;2022-08-18T02:56:22;14.43;;;9.02;;
48613;SDS011;34408;51.426;5.444;2022-08-18T02:59:08;13.13;;;10.00;;
48613;SDS011;34408;51.426;5.444;2022-08-18T03:01:39;11.48;;;9.88;;
48613;SDS011;34408;51.426;5.444;2022-08-18T03:04:09;11.63;;;9.40;;
48613;SDS011;34408;51.426;5.444;2022-08-18T03:06:39;12.18;;;8.77;;
48613;SDS011;34408;51.426;5.444;2022-08-18T03:09:09;12.43;;;8.75;;
48613;SDS011;34408;51.426;5.444;2022-08-18T03:11:40;8.88;;;7.70;;
48613;SDS011;34408;51.426;5.444;2022-08-18T03:14:09;12.60;;;8.85;;
48613;SDS011;34408;51.426;5.444;2022-08-18T03:16:38;10.27;;;9.18;;
48613;SDS011;34408;51.426;5.444;2022-08-18T03:19:20;15.43;;;8.65;;
48613;SDS011;34408;51.426;5.444;2022-08-18T03:21:48;13.57;;;8.75;;
48613;SDS011;34408;51.426;5.444;2022-08-18T03:24:18;11.55;;;9.15;;
48613;SDS011;34408;51.426;5.444;2022-08-18T03:26:50;13.43;;;9.07;;
48613;SDS011;34408;51.426;5.444;2022-08-18T03:29:19;13.25;;;9.38;;
48613;SDS011;34408;51.426;5.444;2022-08-18T03:31:48;13.60;;;9.95;;
48613;SDS011;34408;51.426;5.444;2022-08-18T03:34:16;11.07;;;8.88;;
48613;SDS011;34408;51.426;5.444;2022-08-18T03:36:46;13.73;;;9.75;;
48613;SDS011;34408;51.426;5.444;2022-08-18T03:39:15;10.38;;;9.25;;
48613;SDS011;34408;51.426;5.444;2022-08-18T03:41:45;10.45;;;8.73;;
48613;SDS011;34408;51.426;5.444;2022-08-18T03:44:27;13.90;;;9.88;;
48613;SDS011;34408;51.426;5.444;2022-08-18T03:46:57;14.98;;;9.38;;
48613;SDS011;34408;51.426;5.444;2022-08-18T03:49:25;13.00;;;10.35;;
48613;SDS011;34408;51.426;5.444;2022-08-18T03:51:53;12.43;;;9.68;;
48613;SDS011;34408;51.426;5.444;2022-08-18T03:54:20;11.50;;;9.70;;
48613;SDS011;34408;51.426;5.444;2022-08-18T03:56:49;11.55;;;9.77;;
48613;SDS011;34408;51.426;5.444;2022-08-18T03:59:17;13.73;;;10.00;;
48613;SDS011;34408;51.426;5.444;2022-08-18T04:01:50;12.32;;;10.82;;
48613;SDS011;34408;51.426;5.444;2022-08-18T04:04:21;12.68;;;11.38;;
48613;SDS011;34408;51.426;5.444;2022-08-18T04:06:51;14.18;;;11.30;;
48613;SDS011;34408;51.426;5.444;2022-08-18T04:09:20;13.88;;;10.18;;
48613;SDS011;34408;51.426;5.444;2022-08-18T04:11:50;13.57;;;11.10;;
48613;SDS011;34408;51.426;5.444;2022-08-18T04:14:19;13.25;;;11.85;;
48613;SDS011;34408;51.426;5.444;2022-08-18T04:16:51;13.10;;;11.48;;
48613;SDS011;34408;51.426;5.444;2022-08-18T04:19:19;15.35;;;11.27;;
48613;SDS011;34408;51.426;5.444;2022-08-18T04:21:53;12.55;;;11.13;;
48613;SDS011;34408;51.426;5.444;2022-08-18T04:24:22;13.20;;;11.90;;
48613;SDS011;34408;51.426;5.444;2022-08-18T04:26:51;13.48;;;11.68;;
48613;SDS011;34408;51.426;5.444;2022-08-18T04:29:19;13.93;;;12.43;;
48613;SDS011;34408;51.426;5.444;2022-08-18T04:31:47;13.43;;;12.00;;
48613;SDS011;34408;51.426;5.444;2022-08-18T04:34:19;15.77;;;14.15;;
48613;SDS011;34408;51.426;5.444;2022-08-18T04:36:48;14.27;;;12.70;;
48613;SDS011;34408;51.426;5.444;2022-08-18T04:39:19;15.57;;;13.43;;
48613;SDS011;34408;51.426;5.444;2022-08-18T04:41:48;17.73;;;14.27;;
48613;SDS011;34408;51.426;5.444;2022-08-18T04:44:16;16.50;;;13.55;;
48613;SDS011;34408;51.426;5.444;2022-08-18T04:46:45;14.20;;;12.70;;
48613;SDS011;34408;51.426;5.444;2022-08-18T04:49:15;15.98;;;12.88;;
48613;SDS011;34408;51.426;5.444;2022-08-18T04:51:45;15.80;;;13.05;;
48613;SDS011;34408;51.426;5.444;2022-08-18T04:54:54;20.02;;;13.82;;
48613;SDS011;34408;51.426;5.444;2022-08-18T04:57:21;14.23;;;11.88;;
48613;SDS011;34408;51.426;5.444;2022-08-18T04:59:51;14.18;;;12.63;;
48613;SDS011;34408;51.426;5.444;2022-08-18T05:02:20;15.27;;;12.57;;
48613;SDS011;34408;51.426;5.444;2022-08-18T05:04:49;17.13;;;15.32;;
48613;SDS011;34408;51.426;5.444;2022-08-18T05:07:20;18.42;;;13.77;;
48613;SDS011;34408;51.426;5.444;2022-08-18T05:09:50;14.88;;;12.38;;
48613;SDS011;34408;51.426;5.444;2022-08-18T05:12:20;13.93;;;12.50;;
48613;SDS011;34408;51.426;5.444;2022-08-18T05:14:51;13.93;;;12.52;;
48613;SDS011;34408;51.426;5.444;2022-08-18T05:17:22;14.30;;;11.27;;
48613;SDS011;34408;51.426;5.444;2022-08-18T05:19:56;14.00;;;11.98;;
48613;SDS011;34408;51.426;5.444;2022-08-18T05:22:25;14.77;;;13.07;;
48613;SDS011;34408;51.426;5.444;2022-08-18T05:24:56;16.70;;;12.25;;
48613;SDS011;34408;51.426;5.444;2022-08-18T05:27:29;12.10;;;10.80;;
48613;SDS011;34408;51.426;5.444;2022-08-18T05:29:58;12.55;;;10.55;;
48613;SDS011;34408;51.426;5.444;2022-08-18T05:32:25;14.32;;;11.23;;
48613;SDS011;34408;51.426;5.444;2022-08-18T05:35:14;13.60;;;11.57;;
48613;SDS011;34408;51.426;5.444;2022-08-18T05:37:50;14.20;;;10.95;;
48613;SDS011;34408;51.426;5.444;2022-08-18T05:40:27;11.70;;;10.45;;
48613;SDS011;34408;51.426;5.444;2022-08-18T05:42:57;13.00;;;10.52;;
48613;SDS011;34408;51.426;5.444;2022-08-18T05:45:26;12.98;;;11.57;;
48613;SDS011;34408;51.426;5.444;2022-08-18T05:47:56;10.15;;;9.15;;
48613;SDS011;34408;51.426;5.444;2022-08-18T05:50:25;13.90;;;11.88;;
48613;SDS011;34408;51.426;5.444;2022-08-18T05:52:56;13.90;;;10.80;;
48613;SDS011;34408;51.426;5.444;2022-08-18T05:55:27;12.45;;;11.15;;
48613;SDS011;34408;51.426;5.444;2022-08-18T05:58:33;13.13;;;10.98;;
48613;SDS011;34408;51.426;5.444;2022-08-18T06:01:05;13.15;;;11.07;;
48613;SDS011;34408;51.426;5.444;2022-08-18T06:03:41;12.70;;;11.40;;
48613;SDS011;34408;51.426;5.444;2022-08-18T06:06:13;12.93;;;11.40;;
48613;SDS011;34408;51.426;5.444;2022-08-18T06:08:47;12.35;;;10.95;;
48613;SDS011;34408;51.426;5.444;2022-08-18T06:11:19;14.48;;;11.02;;
48613;SDS011;34408;51.426;5.444;2022-08-18T06:13:48;13.68;;;11.20;;
48613;SDS011;34408;51.426;5.444;2022-08-18T06:16:25;16.85;;;13.00;;
48613;SDS011;34408;51.426;5.444;2022-08-18T06:19:07;14.20;;;11.68;;
48613;SDS011;34408;51.426;5.444;2022-08-18T06:21:51;11.43;;;10.18;;
48613;SDS011;34408;51.426;5.444;2022-08-18T06:24:28;12.50;;;10.38;;
48613;SDS011;34408;51.426;5.444;2022-08-18T06:27:05;14.88;;;10.27;;
48613;SDS011;34408;51.426;5.444;2022-08-18T06:29:47;13.25;;;10.63;;
48613;SDS011;34408;51.426;5.444;2022-08-18T06:32:27;13.88;;;10.90;;
48613;SDS011;34408;51.426;5.444;2022-08-18T06:35:09;14.98;;;11.57;;
48613;SDS011;34408;51.426;5.444;2022-08-18T06:40:34;14.68;;;10.27;;
48613;SDS011;34408;51.426;5.444;2022-08-18T06:43:02;13.48;;;10.63;;
48613;SDS011;34408;51.426;5.444;2022-08-18T06:45:34;14.75;;;9.77;;
48613;SDS011;34408;51.426;5.444;2022-08-18T06:48:06;12.18;;;10.13;;
48613;SDS011;34408;51.426;5.444;2022-08-18T06:50:45;11.45;;;9.32;;
48613;SDS011;34408;51.426;5.444;2022-08-18T06:53:16;11.02;;;9.75;;
48613;SDS011;34408;51.426;5.444;2022-08-18T06:55:54;11.13;;;9.35;;
48613;SDS011;34408;51.426;5.444;2022-08-18T06:58:24;12.20;;;9.80;;
48613;SDS011;34408;51.426;5.444;2022-08-18T07:00:56;12.25;;;10.38;;
48613;SDS011;34408;51.426;5.444;2022-08-18T07:03:41;13.52;;;10.85;;
48613;SDS011;34408;51.426;5.444;2022-08-18T07:06:22;13.35;;;9.93;;
48613;SDS011;34408;51.426;5.444;2022-08-18T07:08:55;13.32;;;10.07;;
48613;SDS011;34408;51.426;5.444;2022-08-18T07:12:00;12.93;;;10.10;;
48613;SDS011;34408;51.426;5.444;2022-08-18T07:14:30;10.85;;;8.85;;
48613;SDS011;34408;51.426;5.444;2022-08-18T07:17:08;12.23;;;10.00;;
48613;SDS011;34408;51.426;5.444;2022-08-18T07:19:38;13.20;;;10.52;;
48613;SDS011;34408;51.426;5.444;2022-08-18T07:22:08;11.55;;;9.85;;
48613;SDS011;34408;51.426;5.444;2022-08-18T07:24:40;10.85;;;9.30;;
48613;SDS011;34408;51.426;5.444;2022-08-18T07:27:11;11.57;;;9.30;;
48613;SDS011;34408;51.426;5.444;2022-08-18T07:29:57;15.38;;;10.15;;
48613;SDS011;34408;51.426;5.444;2022-08-18T07:32:27;12.52;;;8.88;;
48613;SDS011;34408;51.426;5.444;2022-08-18T07:35:00;12.20;;;8.38;;
48613;SDS011;34408;51.426;5.444;2022-08-18T07:37:34;11.82;;;9.30;;
48613;SDS011;34408;51.426;5.444;2022-08-18T07:40:14;13.80;;;9.55;;
48613;SDS011;34408;51.426;5.444;2022-08-18T07:42:50;11.93;;;9.07;;
48613;SDS011;34408;51.426;5.444;2022-08-18T07:45:29;10.40;;;8.57;;
48613;SDS011;34408;51.426;5.444;2022-08-18T07:48:01;10.57;;;8.15;;
48613;SDS011;34408;51.426;5.444;2022-08-18T07:50:55;11.60;;;8.50;;
48613;SDS011;34408;51.426;5.444;2022-08-18T07:53:36;14.18;;;8.40;;
48613;SDS011;34408;51.426;5.444;2022-08-18T07:56:25;11.75;;;9.13;;
48613;SDS011;34408;51.426;5.444;2022-08-18T07:59:01;9.80;;;8.02;;
48613;SDS011;34408;51.426;5.444;2022-08-18T08:01:35;9.43;;;8.05;;
48613;SDS011;34408;51.426;5.444;2022-08-18T08:04:10;9.45;;;7.88;;
48613;SDS011;34408;51.426;5.444;2022-08-18T08:06:53;12.90;;;8.98;;
48613;SDS011;34408;51.426;5.444;2022-08-18T08:09:51;10.32;;;8.48;;
48613;SDS011;34408;51.426;5.444;2022-08-18T08:12:27;11.88;;;8.38;;
48613;SDS011;34408;51.426;5.444;2022-08-18T08:15:09;10.93;;;8.35;;
48613;SDS011;34408;51.426;5.444;2022-08-18T08:17:53;10.15;;;8.27;;
48613;SDS011;34408;51.426;5.444;2022-08-18T08:20:26;9.98;;;7.75;;
48613;SDS011;34408;51.426;5.444;2022-08-18T08:23:01;12.02;;;7.95;;
48613;SDS011;34408;51.426;5.444;2022-08-18T08:25:42;11.00;;;7.95;;
48613;SDS011;34408;51.426;5.444;2022-08-18T08:28:22;11.15;;;7.57;;
48613;SDS011;34408;51.426;5.444;2022-08-18T08:31:02;10.27;;;7.47;;
48613;SDS011;34408;51.426;5.444;2022-08-18T08:33:57;9.45;;;7.57;;
48613;SDS011;34408;51.426;5.444;2022-08-18T08:36:33;9.75;;;6.88;;
48613;SDS011;34408;51.426;5.444;2022-08-18T08:39:05;8.65;;;6.85;;
48613;SDS011;34408;51.426;5.444;2022-08-18T08:41:39;9.20;;;6.95;;
48613;SDS011;34408;51.426;5.444;2022-08-18T08:44:12;7.65;;;6.57;;
48613;SDS011;34408;51.426;5.444;2022-08-18T08:46:45;8.40;;;6.72;;
48613;SDS011;34408;51.426;5.444;2022-08-18T08:49:27;9.38;;;7.30;;
48613;SDS011;34408;51.426;5.444;2022-08-18T08:52:00;7.78;;;6.97;;
48613;SDS011;34408;51.426;5.444;2022-08-18T08:54:36;8.50;;;6.30;;
48613;SDS011;34408;51.426;5.444;2022-08-18T08:57:10;8.30;;;5.93;;
48613;SDS011;34408;51.426;5.444;2022-08-18T08:59:41;8.10;;;6.20;;
48613;SDS011;34408;51.426;5.444;2022-08-18T09:02:23;9.48;;;5.50;;
48613;SDS011;34408;51.426;5.444;2022-08-18T09:05:13;6.28;;;5.15;;
48613;SDS011;34408;51.426;5.444;2022-08-18T09:07:53;8.50;;;6.25;;
48613;SDS011;34408;51.426;5.444;2022-08-18T09:10:59;7.60;;;5.45;;
48613;SDS011;34408;51.426;5.444;2022-08-18T09:13:50;8.40;;;5.45;;
48613;SDS011;34408;51.426;5.444;2022-08-18T09:16:42;9.38;;;5.70;;
48613;SDS011;34408;51.426;5.444;2022-08-18T09:19:27;6.82;;;5.00;;
48613;SDS011;34408;51.426;5.444;2022-08-18T09:22:07;9.32;;;6.63;;
48613;SDS011;34408;51.426;5.444;2022-08-18T09:24:44;7.25;;;5.15;;
48613;SDS011;34408;51.426;5.444;2022-08-18T09:27:22;7.65;;;6.43;;
48613;SDS011;34408;51.426;5.444;2022-08-18T09:36:17;5.40;;;4.50;;
48613;SDS011;34408;51.426;5.444;2022-08-18T09:38:57;7.13;;;4.65;;
48613;SDS011;34408;51.426;5.444;2022-08-18T09:41:50;5.38;;;4.85;;
48613;SDS011;34408;51.426;5.444;2022-08-18T09:50:33;6.85;;;5.32;;
48613;SDS011;34408;51.426;5.444;2022-08-18T09:53:31;6.78;;;4.93;;
48613;SDS011;34408;51.426;5.444;2022-08-18T09:59:54;5.68;;;4.82;;
48613;SDS011;34408;51.426;5.444;2022-08-18T10:05:26;8.82;;;4.90;;
48613;SDS011;34408;51.426;5.444;2022-08-18T10:08:22;8.50;;;4.85;;
48613;SDS011;34408;51.426;5.444;2022-08-18T10:11:04;7.03;;;4.80;;
48613;SDS011;34408;51.426;5.444;2022-08-18T10:13:55;5.60;;;4.68;;
48613;SDS011;34408;51.426;5.444;2022-08-18T10:16:36;5.70;;;4.47;;
48613;SDS011;34408;51.426;5.444;2022-08-18T10:19:35;7.53;;;4.50;;
48613;SDS011;34408;51.426;5.444;2022-08-18T10:22:11;7.28;;;4.50;;
48613;SDS011;34408;51.426;5.444;2022-08-18T10:25:00;5.55;;;4.25;;
48613;SDS011;34408;51.426;5.444;2022-08-18T10:27:49;7.00;;;4.95;;
48613;SDS011;34408;51.426;5.444;2022-08-18T10:33:54;7.68;;;4.35;;
48613;SDS011;34408;51.426;5.444;2022-08-18T10:36:45;7.23;;;3.90;;
48613;SDS011;34408;51.426;5.444;2022-08-18T10:39:18;6.75;;;4.30;;
48613;SDS011;34408;51.426;5.444;2022-08-18T10:41:54;11.65;;;5.03;;
48613;SDS011;34408;51.426;5.444;2022-08-18T10:44:24;7.20;;;4.60;;
48613;SDS011;34408;51.426;5.444;2022-08-18T10:46:56;6.00;;;4.57;;
48613;SDS011;34408;51.426;5.444;2022-08-18T10:49:26;8.57;;;4.90;;
48613;SDS011;34408;51.426;5.444;2022-08-18T10:52:10;6.10;;;4.18;;
48613;SDS011;34408;51.426;5.444;2022-08-18T10:55:10;4.75;;;4.22;;
48613;SDS011;34408;51.426;5.444;2022-08-18T10:57:56;5.53;;;4.18;;
48613;SDS011;34408;51.426;5.444;2022-08-18T11:00:37;4.97;;;4.18;;
48613;SDS011;34408;51.426;5.444;2022-08-18T11:03:19;4.25;;;3.85;;
48613;SDS011;34408;51.426;5.444;2022-08-18T11:06:19;5.00;;;4.07;;
48613;SDS011;34408;51.426;5.444;2022-08-18T11:08:51;6.35;;;4.13;;
48613;SDS011;34408;51.426;5.444;2022-08-18T11:11:24;5.13;;;4.28;;
48613;SDS011;34408;51.426;5.444;2022-08-18T11:14:19;5.85;;;4.30;;
48613;SDS011;34408;51.426;5.444;2022-08-18T11:17:09;5.25;;;4.32;;
48613;SDS011;34408;51.426;5.444;2022-08-18T11:19:43;4.45;;;3.40;;
48613;SDS011;34408;51.426;5.444;2022-08-18T11:22:22;4.18;;;3.78;;
48613;SDS011;34408;51.426;5.444;2022-08-18T11:24:58;8.23;;;4.63;;
48613;SDS011;34408;51.426;5.444;2022-08-18T11:27:29;5.78;;;3.78;;
48613;SDS011;34408;51.426;5.444;2022-08-18T11:30:03;6.18;;;3.70;;
48613;SDS011;34408;51.426;5.444;2022-08-18T11:32:33;8.02;;;4.97;;
48613;SDS011;34408;51.426;5.444;2022-08-18T11:35:25;6.60;;;4.00;;
48613;SDS011;34408;51.426;5.444;2022-08-18T11:37:57;6.30;;;3.97;;
48613;SDS011;34408;51.426;5.444;2022-08-18T11:40:36;5.70;;;4.05;;
48613;SDS011;34408;51.426;5.444;2022-08-18T11:43:27;4.80;;;4.30;;
48613;SDS011;34408;51.426;5.444;2022-08-18T11:46:13;6.00;;;4.20;;
48613;SDS011;34408;51.426;5.444;2022-08-18T11:48:56;5.18;;;3.97;;
48613;SDS011;34408;51.426;5.444;2022-08-18T11:51:28;7.25;;;4.32;;
48613;SDS011;34408;51.426;5.444;2022-08-18T11:53:58;5.05;;;4.22;;
48613;SDS011;34408;51.426;5.444;2022-08-18T11:56:29;5.53;;;3.63;;
48613;SDS011;34408;51.426;5.444;2022-08-18T11:59:31;5.90;;;3.50;;
48613;SDS011;34408;51.426;5.444;2022-08-18T12:02:22;5.82;;;4.10;;
48613;SDS011;34408;51.426;5.444;2022-08-18T12:04:51;5.63;;;4.20;;
48613;SDS011;34408;51.426;5.444;2022-08-18T12:07:34;7.47;;;4.45;;
48613;SDS011;34408;51.426;5.444;2022-08-18T12:10:24;6.60;;;3.17;;
48613;SDS011;34408;51.426;5.444;2022-08-18T12:12:55;6.68;;;4.10;;
48613;SDS011;34408;51.426;5.444;2022-08-18T12:15:27;7.35;;;4.55;;
48613;SDS011;34408;51.426;5.444;2022-08-18T12:18:18;8.13;;;4.80;;
48613;SDS011;34408;51.426;5.444;2022-08-18T12:21:05;5.93;;;3.85;;
48613;SDS011;34408;51.426;5.444;2022-08-18T12:23:35;5.32;;;3.88;;
48613;SDS011;34408;51.426;5.444;2022-08-18T12:26:17;6.40;;;4.00;;
48613;SDS011;34408;51.426;5.444;2022-08-18T12:29:06;5.30;;;3.63;;
48613;SDS011;34408;51.426;5.444;2022-08-18T12:31:36;5.65;;;3.58;;
48613;SDS011;34408;51.426;5.444;2022-08-18T12:34:14;4.95;;;3.65;;
48613;SDS011;34408;51.426;5.444;2022-08-18T12:36:52;6.43;;;3.72;;
48613;SDS011;34408;51.426;5.444;2022-08-18T12:39:21;4.93;;;3.53;;
48613;SDS011;34408;51.426;5.444;2022-08-18T12:41:50;7.03;;;3.90;;
48613;SDS011;34408;51.426;5.444;2022-08-18T12:44:17;6.75;;;4.00;;
48613;SDS011;34408;51.426;5.444;2022-08-18T12:46:46;8.15;;;3.70;;
48613;SDS011;34408;51.426;5.444;2022-08-18T12:49:17;6.03;;;3.55;;
48613;SDS011;34408;51.426;5.444;2022-08-18T12:51:46;6.13;;;3.28;;
48613;SDS011;34408;51.426;5.444;2022-08-18T12:54:16;4.65;;;3.25;;
48613;SDS011;34408;51.426;5.444;2022-08-18T12:56:45;6.30;;;3.70;;
48613;SDS011;34408;51.426;5.444;2022-08-18T12:59:16;5.75;;;3.60;;
48613;SDS011;34408;51.426;5.444;2022-08-18T13:01:44;4.57;;;3.50;;
48613;SDS011;34408;51.426;5.444;2022-08-18T13:04:12;4.90;;;3.28;;
48613;SDS011;34408;51.426;5.444;2022-08-18T13:06:46;5.20;;;3.70;;
48613;SDS011;34408;51.426;5.444;2022-08-18T13:09:27;4.50;;;3.33;;
48613;SDS011;34408;51.426;5.444;2022-08-18T13:12:12;4.68;;;3.90;;
48613;SDS011;34408;51.426;5.444;2022-08-18T13:14:42;7.45;;;3.80;;
48613;SDS011;34408;51.426;5.444;2022-08-18T13:17:11;3.83;;;3.17;;
48613;SDS011;34408;51.426;5.444;2022-08-18T13:19:59;5.63;;;3.42;;
48613;SDS011;34408;51.426;5.444;2022-08-18T13:22:29;5.70;;;3.05;;
48613;SDS011;34408;51.426;5.444;2022-08-18T13:24:58;6.10;;;3.50;;
48613;SDS011;34408;51.426;5.444;2022-08-18T13:27:28;4.07;;;3.35;;
48613;SDS011;34408;51.426;5.444;2022-08-18T13:30:03;6.35;;;3.92;;
48613;SDS011;34408;51.426;5.444;2022-08-18T13:32:52;4.28;;;3.10;;
48613;SDS011;34408;51.426;5.444;2022-08-18T13:35:25;5.35;;;3.35;;
48613;SDS011;34408;51.426;5.444;2022-08-18T13:38:03;4.65;;;3.13;;
48613;SDS011;34408;51.426;5.444;2022-08-18T13:40:45;4.45;;;3.42;;
48613;SDS011;34408;51.426;5.444;2022-08-18T13:43:14;6.03;;;3.20;;
48613;SDS011;34408;51.426;5.444;2022-08-18T13:45:43;4.72;;;3.33;;
48613;SDS011;34408;51.426;5.444;2022-08-18T13:48:21;4.43;;;3.30;;
48613;SDS011;34408;51.426;5.444;2022-08-18T13:50:49;4.97;;;3.58;;
48613;SDS011;34408;51.426;5.444;2022-08-18T13:53:22;4.55;;;3.78;;
48613;SDS011;34408;51.426;5.444;2022-08-18T13:55:53;6.57;;;3.72;;
48613;SDS011;34408;51.426;5.444;2022-08-18T13:58:23;4.88;;;3.30;;
48613;SDS011;34408;51.426;5.444;2022-08-18T14:00:54;5.82;;;3.53;;
48613;SDS011;34408;51.426;5.444;2022-08-18T14:03:41;4.97;;;3.80;;
48613;SDS011;34408;51.426;5.444;2022-08-18T14:06:13;4.22;;;3.22;;
48613;SDS011;34408;51.426;5.444;2022-08-18T14:08:50;6.00;;;3.75;;
48613;SDS011;34408;51.426;5.444;2022-08-18T14:11:19;4.85;;;3.17;;
48613;SDS011;34408;51.426;5.444;2022-08-18T14:13:52;5.50;;;3.80;;
48613;SDS011;34408;51.426;5.444;2022-08-18T14:16:22;4.00;;;3.47;;
48613;SDS011;34408;51.426;5.444;2022-08-18T14:18:52;5.63;;;4.25;;
48613;SDS011;34408;51.426;5.444;2022-08-18T14:21:39;5.05;;;3.85;;
48613;SDS011;34408;51.426;5.444;2022-08-18T14:24:29;4.53;;;3.58;;
48613;SDS011;34408;51.426;5.444;2022-08-18T14:27:15;4.78;;;3.55;;
48613;SDS011;34408;51.426;5.444;2022-08-18T14:29:43;5.38;;;3.58;;
48613;SDS011;34408;51.426;5.444;2022-08-18T14:32:13;5.32;;;3.58;;
48613;SDS011;34408;51.426;5.444;2022-08-18T14:34:54;5.68;;;3.50;;
48613;SDS011;34408;51.426;5.444;2022-08-18T14:37:26;3.80;;;3.40;;
48613;SDS011;34408;51.426;5.444;2022-08-18T14:39:55;4.50;;;3.60;;
48613;SDS011;34408;51.426;5.444;2022-08-18T14:42:23;4.57;;;3.83;;
48613;SDS011;34408;51.426;5.444;2022-08-18T14:45:13;3.85;;;3.33;;
48613;SDS011;34408;51.426;5.444;2022-08-18T14:47:57;5.32;;;4.13;;
48613;SDS011;34408;51.426;5.444;2022-08-18T14:50:24;5.53;;;3.75;;
48613;SDS011;34408;51.426;5.444;2022-08-18T14:52:52;6.50;;;4.18;;
48613;SDS011;34408;51.426;5.444;2022-08-18T14:55:22;4.20;;;3.80;;
48613;SDS011;34408;51.426;5.444;2022-08-18T14:57:52;4.90;;;3.90;;
48613;SDS011;34408;51.426;5.444;2022-08-18T15:00:24;6.38;;;3.97;;
48613;SDS011;34408;51.426;5.444;2022-08-18T15:02:52;5.03;;;4.35;;
48613;SDS011;34408;51.426;5.444;2022-08-18T15:05:24;6.93;;;3.92;;
48613;SDS011;34408;51.426;5.444;2022-08-18T15:07:54;6.57;;;3.90;;
48613;SDS011;34408;51.426;5.444;2022-08-18T15:10:25;4.70;;;4.20;;
48613;SDS011;34408;51.426;5.444;2022-08-18T15:12:53;4.75;;;3.88;;
48613;SDS011;34408;51.426;5.444;2022-08-18T15:15:22;4.40;;;3.50;;
48613;SDS011;34408;51.426;5.444;2022-08-18T15:17:51;4.65;;;3.63;;
48613;SDS011;34408;51.426;5.444;2022-08-18T15:20:19;4.82;;;3.65;;
48613;SDS011;34408;51.426;5.444;2022-08-18T15:22:57;5.97;;;3.80;;
48613;SDS011;34408;51.426;5.444;2022-08-18T15:25:56;5.57;;;4.05;;
48613;SDS011;34408;51.426;5.444;2022-08-18T15:28:25;5.75;;;4.32;;
48613;SDS011;34408;51.426;5.444;2022-08-18T15:30:53;4.57;;;3.85;;
48613;SDS011;34408;51.426;5.444;2022-08-18T15:33:40;5.28;;;3.13;;
48613;SDS011;34408;51.426;5.444;2022-08-18T15:36:15;5.53;;;3.50;;
48613;SDS011;34408;51.426;5.444;2022-08-18T15:38:54;8.15;;;3.80;;
48613;SDS011;34408;51.426;5.444;2022-08-18T15:41:28;4.63;;;3.97;;
48613;SDS011;34408;51.426;5.444;2022-08-18T15:44:00;5.68;;;4.57;;
48613;SDS011;34408;51.426;5.444;2022-08-18T15:46:30;8.02;;;4.25;;
48613;SDS011;34408;51.426;5.444;2022-08-18T15:48:59;4.85;;;3.88;;